sensor_id;sensor_type;location;lat;lon;timestamp;temperature;humidity
11540;DHT22;5826;54.756;9.192;2023-03-23T00:02:27;10.40;99.90
11540;DHT22;5826;54.756;9.192;2023-03-23T00:04:53;10.40;99.90
11540;DHT22;5826;54.756;9.192;2023-03-23T00:07:22;10.40;99.90
11540;DHT22;5826;54.756;9.192;2023-03-23T00:09:49;10.40;99.90
11540;DHT22;5826;54.756;9.192;2023-03-23T00:12:23;10.40;99.90
11540;DHT22;5826;54.756;9.192;2023-03-23T00:15:04;10.40;99.90
11540;DHT22;5826;54.756;9.192;2023-03-23T00:17:31;10.40;99.90
11540;DHT22;5826;54.756;9.192;2023-03-23T00:19:58;10.40;99.90
11540;DHT22;5826;54.756;9.192;2023-03-23T00:22:26;10.40;99.90
11540;DHT22;5826;54.756;9.192;2023-03-23T00:24:52;10.40;99.90
11540;DHT22;5826;54.756;9.192;2023-03-23T00:27:18;10.40;99.90
11540;DHT22;5826;54.756;9.192;2023-03-23T00:29:44;10.50;99.90
11540;DHT22;5826;54.756;9.192;2023-03-23T00:32:12;10.50;99.90
11540;DHT22;5826;54.756;9.192;2023-03-23T00:34:42;10.50;99.90
11540;DHT22;5826;54.756;9.192;2023-03-23T00:37:09;10.50;99.90
11540;DHT22;5826;54.756;9.192;2023-03-23T00:39:35;10.50;99.90
11540;DHT22;5826;54.756;9.192;2023-03-23T00:42:04;10.50;99.90
11540;DHT22;5826;54.756;9.192;2023-03-23T00:44:31;10.70;99.90
11540;DHT22;5826;54.756;9.192;2023-03-23T00:46:58;10.50;99.90
11540;DHT22;5826;54.756;9.192;2023-03-23T00:49:24;10.60;99.90
11540;DHT22;5826;54.756;9.192;2023-03-23T00:51:55;10.50;99.90
11540;DHT22;5826;54.756;9.192;2023-03-23T00:54:21;10.60;99.90
11540;DHT22;5826;54.756;9.192;2023-03-23T00:56:47;10.50;99.90
11540;DHT22;5826;54.756;9.192;2023-03-23T00:59:13;10.60;99.90
11540;DHT22;5826;54.756;9.192;2023-03-23T01:01:39;10.60;99.90
11540;DHT22;5826;54.756;9.192;2023-03-23T01:04:05;10.50;99.90
11540;DHT22;5826;54.756;9.192;2023-03-23T01:06:32;10.50;99.90
11540;DHT22;5826;54.756;9.192;2023-03-23T01:09:00;10.50;99.90
11540;DHT22;5826;54.756;9.192;2023-03-23T01:11:26;10.50;99.90
11540;DHT22;5826;54.756;9.192;2023-03-23T01:13:52;10.50;99.90
11540;DHT22;5826;54.756;9.192;2023-03-23T01:16:18;10.40;99.90
11540;DHT22;5826;54.756;9.192;2023-03-23T01:18:43;10.40;99.90
11540;DHT22;5826;54.756;9.192;2023-03-23T01:21:11;10.40;99.90
11540;DHT22;5826;54.756;9.192;2023-03-23T01:23:38;10.40;99.90
11540;DHT22;5826;54.756;9.192;2023-03-23T01:26:15;10.40;99.90
11540;DHT22;5826;54.756;9.192;2023-03-23T01:28:42;10.40;99.90
11540;DHT22;5826;54.756;9.192;2023-03-23T01:31:10;10.40;99.90
11540;DHT22;5826;54.756;9.192;2023-03-23T01:33:38;10.40;99.90
11540;DHT22;5826;54.756;9.192;2023-03-23T01:36:06;10.40;99.90
11540;DHT22;5826;54.756;9.192;2023-03-23T01:38:33;10.40;99.90
11540;DHT22;5826;54.756;9.192;2023-03-23T01:40:59;10.30;99.90
11540;DHT22;5826;54.756;9.192;2023-03-23T01:43:25;10.30;99.90
11540;DHT22;5826;54.756;9.192;2023-03-23T01:45:51;10.30;99.90
11540;DHT22;5826;54.756;9.192;2023-03-23T01:48:23;10.30;99.90
11540;DHT22;5826;54.756;9.192;2023-03-23T01:53:21;10.30;99.90
11540;DHT22;5826;54.756;9.192;2023-03-23T01:55:49;10.30;99.90
11540;DHT22;5826;54.756;9.192;2023-03-23T01:58:19;10.20;99.90
11540;DHT22;5826;54.756;9.192;2023-03-23T02:00:46;10.20;99.90
11540;DHT22;5826;54.756;9.192;2023-03-23T02:03:13;10.20;99.90
11540;DHT22;5826;54.756;9.192;2023-03-23T02:05:41;10.20;99.90
11540;DHT22;5826;54.756;9.192;2023-03-23T02:08:09;10.20;99.90
11540;DHT22;5826;54.756;9.192;2023-03-23T02:10:37;10.10;99.90
11540;DHT22;5826;54.756;9.192;2023-03-23T02:13:04;10.20;99.90
11540;DHT22;5826;54.756;9.192;2023-03-23T02:15:55;10.10;99.90
11540;DHT22;5826;54.756;9.192;2023-03-23T02:18:49;10.10;99.90
11540;DHT22;5826;54.756;9.192;2023-03-23T02:21:53;10.00;99.90
11540;DHT22;5826;54.756;9.192;2023-03-23T02:24:56;10.00;99.90
11540;DHT22;5826;54.756;9.192;2023-03-23T02:28:02;10.00;99.90
11540;DHT22;5826;54.756;9.192;2023-03-23T02:30:47;10.00;99.90
11540;DHT22;5826;54.756;9.192;2023-03-23T02:33:29;10.00;99.90
11540;DHT22;5826;54.756;9.192;2023-03-23T02:36:44;10.00;99.90
11540;DHT22;5826;54.756;9.192;2023-03-23T02:41:33;10.00;99.90
11540;DHT22;5826;54.756;9.192;2023-03-23T02:44:02;10.00;99.90
11540;DHT22;5826;54.756;9.192;2023-03-23T02:46:29;10.00;99.90
11540;DHT22;5826;54.756;9.192;2023-03-23T02:48:57;10.00;99.90
11540;DHT22;5826;54.756;9.192;2023-03-23T02:51:24;10.00;99.90
11540;DHT22;5826;54.756;9.192;2023-03-23T02:53:52;9.90;99.90
11540;DHT22;5826;54.756;9.192;2023-03-23T02:56:19;9.80;99.90
11540;DHT22;5826;54.756;9.192;2023-03-23T02:58:45;9.80;99.90
11540;DHT22;5826;54.756;9.192;2023-03-23T03:03:54;9.80;99.90
11540;DHT22;5826;54.756;9.192;2023-03-23T03:06:33;9.80;99.90
11540;DHT22;5826;54.756;9.192;2023-03-23T03:09:07;9.70;99.90
11540;DHT22;5826;54.756;9.192;2023-03-23T03:11:37;9.70;99.90
11540;DHT22;5826;54.756;9.192;2023-03-23T03:14:08;9.70;99.90
11540;DHT22;5826;54.756;9.192;2023-03-23T03:16:40;9.70;99.90
11540;DHT22;5826;54.756;9.192;2023-03-23T03:19:20;9.70;99.90
11540;DHT22;5826;54.756;9.192;2023-03-23T03:21:51;9.70;99.90
11540;DHT22;5826;54.756;9.192;2023-03-23T03:24:19;9.70;99.90
11540;DHT22;5826;54.756;9.192;2023-03-23T03:26:47;9.70;99.90
11540;DHT22;5826;54.756;9.192;2023-03-23T03:29:20;9.70;99.90
11540;DHT22;5826;54.756;9.192;2023-03-23T03:31:47;9.70;99.90
11540;DHT22;5826;54.756;9.192;2023-03-23T03:34:15;9.70;99.90
11540;DHT22;5826;54.756;9.192;2023-03-23T03:36:43;9.70;99.90
11540;DHT22;5826;54.756;9.192;2023-03-23T03:39:12;9.70;99.90
11540;DHT22;5826;54.756;9.192;2023-03-23T03:41:38;9.70;99.90
11540;DHT22;5826;54.756;9.192;2023-03-23T03:44:05;9.60;99.90
11540;DHT22;5826;54.756;9.192;2023-03-23T03:46:32;9.70;99.90
11540;DHT22;5826;54.756;9.192;2023-03-23T03:48:58;9.70;99.90
11540;DHT22;5826;54.756;9.192;2023-03-23T03:51:25;9.70;99.90
11540;DHT22;5826;54.756;9.192;2023-03-23T03:53:51;9.70;99.90
11540;DHT22;5826;54.756;9.192;2023-03-23T03:56:17;9.70;99.90
11540;DHT22;5826;54.756;9.192;2023-03-23T03:58:43;9.70;99.90
11540;DHT22;5826;54.756;9.192;2023-03-23T04:01:09;9.80;99.90
11540;DHT22;5826;54.756;9.192;2023-03-23T04:03:39;9.70;99.90
11540;DHT22;5826;54.756;9.192;2023-03-23T04:06:04;9.80;99.90
11540;DHT22;5826;54.756;9.192;2023-03-23T04:08:30;9.80;99.90
11540;DHT22;5826;54.756;9.192;2023-03-23T04:10:57;9.80;99.90
11540;DHT22;5826;54.756;9.192;2023-03-23T04:13:22;9.80;99.90
11540;DHT22;5826;54.756;9.192;2023-03-23T04:15:48;9.90;99.90
11540;DHT22;5826;54.756;9.192;2023-03-23T04:18:15;9.80;99.90
11540;DHT22;5826;54.756;9.192;2023-03-23T04:20:43;9.80;99.90
11540;DHT22;5826;54.756;9.192;2023-03-23T04:23:10;9.80;99.90
11540;DHT22;5826;54.756;9.192;2023-03-23T04:25:35;9.80;99.90
11540;DHT22;5826;54.756;9.192;2023-03-23T04:28:01;9.80;99.90
11540;DHT22;5826;54.756;9.192;2023-03-23T04:30:28;9.90;99.90
11540;DHT22;5826;54.756;9.192;2023-03-23T04:32:55;9.90;99.90
11540;DHT22;5826;54.756;9.192;2023-03-23T04:35:23;9.90;99.90
11540;DHT22;5826;54.756;9.192;2023-03-23T04:37:53;9.90;99.90
11540;DHT22;5826;54.756;9.192;2023-03-23T04:40:19;9.90;99.90
11540;DHT22;5826;54.756;9.192;2023-03-23T04:42:45;9.80;99.90
11540;DHT22;5826;54.756;9.192;2023-03-23T04:45:15;9.90;99.90
11540;DHT22;5826;54.756;9.192;2023-03-23T04:47:41;9.80;99.90
11540;DHT22;5826;54.756;9.192;2023-03-23T04:50:09;9.80;99.90
11540;DHT22;5826;54.756;9.192;2023-03-23T04:52:36;9.80;99.90
11540;DHT22;5826;54.756;9.192;2023-03-23T04:55:06;9.70;99.90
11540;DHT22;5826;54.756;9.192;2023-03-23T04:57:33;9.70;99.90
11540;DHT22;5826;54.756;9.192;2023-03-23T04:59:59;9.70;99.90
11540;DHT22;5826;54.756;9.192;2023-03-23T05:02:25;9.70;99.90
11540;DHT22;5826;54.756;9.192;2023-03-23T05:04:56;9.80;99.90
11540;DHT22;5826;54.756;9.192;2023-03-23T05:07:22;9.80;99.90
11540;DHT22;5826;54.756;9.192;2023-03-23T05:09:49;9.80;99.90
11540;DHT22;5826;54.756;9.192;2023-03-23T05:12:15;9.80;99.90
11540;DHT22;5826;54.756;9.192;2023-03-23T05:14:42;9.80;99.90
11540;DHT22;5826;54.756;9.192;2023-03-23T05:17:08;9.80;99.90
11540;DHT22;5826;54.756;9.192;2023-03-23T05:19:35;9.80;99.90
11540;DHT22;5826;54.756;9.192;2023-03-23T05:22:01;9.80;99.90
11540;DHT22;5826;54.756;9.192;2023-03-23T05:24:31;9.80;99.90
11540;DHT22;5826;54.756;9.192;2023-03-23T05:26:59;9.80;99.90
11540;DHT22;5826;54.756;9.192;2023-03-23T05:29:25;9.80;99.90
11540;DHT22;5826;54.756;9.192;2023-03-23T05:31:51;9.80;99.90
11540;DHT22;5826;54.756;9.192;2023-03-23T05:34:18;9.80;99.90
11540;DHT22;5826;54.756;9.192;2023-03-23T05:36:44;9.80;99.90
11540;DHT22;5826;54.756;9.192;2023-03-23T05:39:11;9.80;99.90
11540;DHT22;5826;54.756;9.192;2023-03-23T05:41:38;9.80;99.90
11540;DHT22;5826;54.756;9.192;2023-03-23T05:44:04;9.80;99.90
11540;DHT22;5826;54.756;9.192;2023-03-23T05:46:29;9.80;99.90
11540;DHT22;5826;54.756;9.192;2023-03-23T05:48:55;9.80;99.90
11540;DHT22;5826;54.756;9.192;2023-03-23T05:51:21;9.90;99.90
11540;DHT22;5826;54.756;9.192;2023-03-23T05:53:46;9.90;99.90
11540;DHT22;5826;54.756;9.192;2023-03-23T05:56:13;9.90;99.90
11540;DHT22;5826;54.756;9.192;2023-03-23T05:58:39;9.90;99.90
11540;DHT22;5826;54.756;9.192;2023-03-23T06:01:08;9.90;99.90
11540;DHT22;5826;54.756;9.192;2023-03-23T06:03:34;9.90;99.90
11540;DHT22;5826;54.756;9.192;2023-03-23T06:06:02;10.00;99.90
11540;DHT22;5826;54.756;9.192;2023-03-23T06:08:28;10.00;99.90
11540;DHT22;5826;54.756;9.192;2023-03-23T06:10:54;10.00;99.90
11540;DHT22;5826;54.756;9.192;2023-03-23T06:13:20;10.00;99.90
11540;DHT22;5826;54.756;9.192;2023-03-23T06:15:46;10.00;99.90
11540;DHT22;5826;54.756;9.192;2023-03-23T06:18:11;10.00;99.90
11540;DHT22;5826;54.756;9.192;2023-03-23T06:20:38;10.00;99.90
11540;DHT22;5826;54.756;9.192;2023-03-23T06:23:04;10.00;99.90
11540;DHT22;5826;54.756;9.192;2023-03-23T06:25:30;10.00;99.90
11540;DHT22;5826;54.756;9.192;2023-03-23T06:27:55;10.00;99.90
11540;DHT22;5826;54.756;9.192;2023-03-23T06:30:21;10.00;99.90
11540;DHT22;5826;54.756;9.192;2023-03-23T06:32:47;10.10;99.90
11540;DHT22;5826;54.756;9.192;2023-03-23T06:35:14;10.00;99.90
11540;DHT22;5826;54.756;9.192;2023-03-23T06:37:40;10.00;99.90
11540;DHT22;5826;54.756;9.192;2023-03-23T06:40:06;10.00;99.90
11540;DHT22;5826;54.756;9.192;2023-03-23T06:42:33;10.10;99.90
11540;DHT22;5826;54.756;9.192;2023-03-23T06:44:59;10.10;99.90
11540;DHT22;5826;54.756;9.192;2023-03-23T06:47:26;10.10;99.90
11540;DHT22;5826;54.756;9.192;2023-03-23T06:49:54;10.10;99.90
11540;DHT22;5826;54.756;9.192;2023-03-23T06:52:20;10.20;99.90
11540;DHT22;5826;54.756;9.192;2023-03-23T06:54:45;10.20;99.90
11540;DHT22;5826;54.756;9.192;2023-03-23T06:57:11;10.30;99.90
11540;DHT22;5826;54.756;9.192;2023-03-23T06:59:36;10.30;99.90
11540;DHT22;5826;54.756;9.192;2023-03-23T07:02:02;10.30;99.90
11540;DHT22;5826;54.756;9.192;2023-03-23T07:04:27;10.30;99.90
11540;DHT22;5826;54.756;9.192;2023-03-23T07:06:53;10.40;99.90
11540;DHT22;5826;54.756;9.192;2023-03-23T07:09:18;10.40;99.90
11540;DHT22;5826;54.756;9.192;2023-03-23T07:11:44;10.50;99.90
11540;DHT22;5826;54.756;9.192;2023-03-23T07:14:10;10.50;99.90
11540;DHT22;5826;54.756;9.192;2023-03-23T07:16:36;10.50;99.90
11540;DHT22;5826;54.756;9.192;2023-03-23T07:19:02;10.50;99.90
11540;DHT22;5826;54.756;9.192;2023-03-23T07:21:28;10.50;99.90
11540;DHT22;5826;54.756;9.192;2023-03-23T07:23:53;10.50;99.90
11540;DHT22;5826;54.756;9.192;2023-03-23T07:26:19;10.50;99.90
11540;DHT22;5826;54.756;9.192;2023-03-23T07:28:44;10.50;99.90
11540;DHT22;5826;54.756;9.192;2023-03-23T07:31:11;10.50;99.90
11540;DHT22;5826;54.756;9.192;2023-03-23T07:33:36;10.50;99.90
11540;DHT22;5826;54.756;9.192;2023-03-23T07:36:03;10.50;99.90
11540;DHT22;5826;54.756;9.192;2023-03-23T07:38:29;10.50;99.90
11540;DHT22;5826;54.756;9.192;2023-03-23T07:40:56;10.50;99.90
11540;DHT22;5826;54.756;9.192;2023-03-23T07:43:22;10.50;99.90
11540;DHT22;5826;54.756;9.192;2023-03-23T07:45:48;10.50;99.90
11540;DHT22;5826;54.756;9.192;2023-03-23T07:48:13;10.60;99.90
11540;DHT22;5826;54.756;9.192;2023-03-23T07:50:39;10.60;99.90
11540;DHT22;5826;54.756;9.192;2023-03-23T07:53:05;10.70;99.90
11540;DHT22;5826;54.756;9.192;2023-03-23T07:55:31;10.80;99.90
11540;DHT22;5826;54.756;9.192;2023-03-23T07:57:57;10.80;99.90
11540;DHT22;5826;54.756;9.192;2023-03-23T08:00:23;10.80;99.90
11540;DHT22;5826;54.756;9.192;2023-03-23T08:02:54;10.90;99.90
11540;DHT22;5826;54.756;9.192;2023-03-23T08:05:21;10.90;99.90
11540;DHT22;5826;54.756;9.192;2023-03-23T08:07:48;10.90;99.90
11540;DHT22;5826;54.756;9.192;2023-03-23T08:10:15;10.90;99.90
11540;DHT22;5826;54.756;9.192;2023-03-23T08:12:43;10.90;99.90
11540;DHT22;5826;54.756;9.192;2023-03-23T08:15:11;10.90;99.90
11540;DHT22;5826;54.756;9.192;2023-03-23T08:17:41;10.90;99.90
11540;DHT22;5826;54.756;9.192;2023-03-23T08:20:08;10.90;99.90
11540;DHT22;5826;54.756;9.192;2023-03-23T08:22:38;11.00;99.90
11540;DHT22;5826;54.756;9.192;2023-03-23T08:25:05;11.00;99.90
11540;DHT22;5826;54.756;9.192;2023-03-23T08:27:32;11.00;99.90
11540;DHT22;5826;54.756;9.192;2023-03-23T08:29:57;11.10;99.90
11540;DHT22;5826;54.756;9.192;2023-03-23T08:32:23;11.10;99.90
11540;DHT22;5826;54.756;9.192;2023-03-23T08:34:49;11.10;99.90
11540;DHT22;5826;54.756;9.192;2023-03-23T08:37:15;11.10;99.90
11540;DHT22;5826;54.756;9.192;2023-03-23T08:39:40;11.10;99.90
11540;DHT22;5826;54.756;9.192;2023-03-23T08:42:08;11.10;99.90
11540;DHT22;5826;54.756;9.192;2023-03-23T08:44:33;11.10;99.90
11540;DHT22;5826;54.756;9.192;2023-03-23T08:46:59;11.10;99.90
11540;DHT22;5826;54.756;9.192;2023-03-23T08:49:25;11.10;99.90
11540;DHT22;5826;54.756;9.192;2023-03-23T08:51:51;11.10;99.90
11540;DHT22;5826;54.756;9.192;2023-03-23T08:54:17;11.00;99.90
11540;DHT22;5826;54.756;9.192;2023-03-23T08:56:43;11.00;99.90
11540;DHT22;5826;54.756;9.192;2023-03-23T08:59:09;10.90;99.90
11540;DHT22;5826;54.756;9.192;2023-03-23T09:01:35;10.90;99.90
11540;DHT22;5826;54.756;9.192;2023-03-23T09:04:01;10.90;99.90
11540;DHT22;5826;54.756;9.192;2023-03-23T09:06:26;10.90;99.90
11540;DHT22;5826;54.756;9.192;2023-03-23T09:08:53;10.80;99.90
11540;DHT22;5826;54.756;9.192;2023-03-23T09:11:20;10.80;99.90
11540;DHT22;5826;54.756;9.192;2023-03-23T09:13:46;10.80;99.90
11540;DHT22;5826;54.756;9.192;2023-03-23T09:16:12;10.80;99.90
11540;DHT22;5826;54.756;9.192;2023-03-23T09:18:38;10.70;99.90
11540;DHT22;5826;54.756;9.192;2023-03-23T09:21:04;10.80;99.90
11540;DHT22;5826;54.756;9.192;2023-03-23T09:23:30;10.80;99.90
11540;DHT22;5826;54.756;9.192;2023-03-23T09:25:56;10.90;99.90
11540;DHT22;5826;54.756;9.192;2023-03-23T09:28:22;11.00;99.90
11540;DHT22;5826;54.756;9.192;2023-03-23T09:30:48;10.90;99.90
11540;DHT22;5826;54.756;9.192;2023-03-23T09:33:14;11.00;99.90
11540;DHT22;5826;54.756;9.192;2023-03-23T09:35:40;11.00;99.90
11540;DHT22;5826;54.756;9.192;2023-03-23T09:38:09;11.00;99.90
11540;DHT22;5826;54.756;9.192;2023-03-23T09:40:46;11.00;99.90
11540;DHT22;5826;54.756;9.192;2023-03-23T09:43:20;11.00;99.90
11540;DHT22;5826;54.756;9.192;2023-03-23T09:53:57;11.20;99.90
11540;DHT22;5826;54.756;9.192;2023-03-23T09:56:29;11.30;99.90
11540;DHT22;5826;54.756;9.192;2023-03-23T09:59:19;11.40;99.90
11540;DHT22;5826;54.756;9.192;2023-03-23T10:01:51;11.40;99.90
11540;DHT22;5826;54.756;9.192;2023-03-23T10:04:43;11.50;99.90
11540;DHT22;5826;54.756;9.192;2023-03-23T10:07:12;11.50;99.90
11540;DHT22;5826;54.756;9.192;2023-03-23T10:09:39;11.50;99.90
11540;DHT22;5826;54.756;9.192;2023-03-23T10:15:12;11.60;99.90
11540;DHT22;5826;54.756;9.192;2023-03-23T10:20:46;11.80;99.90
11540;DHT22;5826;54.756;9.192;2023-03-23T10:25:56;11.90;99.90
11540;DHT22;5826;54.756;9.192;2023-03-23T10:28:41;12.00;99.90
11540;DHT22;5826;54.756;9.192;2023-03-23T10:31:13;12.00;99.90
11540;DHT22;5826;54.756;9.192;2023-03-23T10:33:45;12.10;99.90
11540;DHT22;5826;54.756;9.192;2023-03-23T10:36:19;12.10;99.90
11540;DHT22;5826;54.756;9.192;2023-03-23T10:38:59;12.00;99.90
11540;DHT22;5826;54.756;9.192;2023-03-23T10:41:26;12.20;99.90
11540;DHT22;5826;54.756;9.192;2023-03-23T10:43:51;12.20;99.90
11540;DHT22;5826;54.756;9.192;2023-03-23T10:46:26;12.30;99.90
11540;DHT22;5826;54.756;9.192;2023-03-23T10:48:53;12.20;99.90
11540;DHT22;5826;54.756;9.192;2023-03-23T10:51:23;12.30;99.90
11540;DHT22;5826;54.756;9.192;2023-03-23T10:53:51;12.40;99.90
11540;DHT22;5826;54.756;9.192;2023-03-23T10:56:27;12.40;99.90
11540;DHT22;5826;54.756;9.192;2023-03-23T10:58:53;12.40;99.90
11540;DHT22;5826;54.756;9.192;2023-03-23T11:01:30;12.50;99.90
11540;DHT22;5826;54.756;9.192;2023-03-23T11:03:56;12.50;99.90
11540;DHT22;5826;54.756;9.192;2023-03-23T11:06:27;12.60;99.90
11540;DHT22;5826;54.756;9.192;2023-03-23T11:09:00;12.60;99.90
11540;DHT22;5826;54.756;9.192;2023-03-23T11:11:27;12.70;99.90
11540;DHT22;5826;54.756;9.192;2023-03-23T11:14:15;12.60;99.90
11540;DHT22;5826;54.756;9.192;2023-03-23T11:16:55;12.50;99.90
11540;DHT22;5826;54.756;9.192;2023-03-23T11:19:29;12.50;99.90
11540;DHT22;5826;54.756;9.192;2023-03-23T11:24:35;12.40;99.90
11540;DHT22;5826;54.756;9.192;2023-03-23T11:27:02;12.30;99.90
11540;DHT22;5826;54.756;9.192;2023-03-23T11:29:32;12.30;99.90
11540;DHT22;5826;54.756;9.192;2023-03-23T11:32:02;12.50;99.90
11540;DHT22;5826;54.756;9.192;2023-03-23T11:34:57;12.60;99.90
11540;DHT22;5826;54.756;9.192;2023-03-23T11:37:46;12.60;99.90
11540;DHT22;5826;54.756;9.192;2023-03-23T11:40:16;12.50;99.90
11540;DHT22;5826;54.756;9.192;2023-03-23T11:43:06;12.60;99.90
11540;DHT22;5826;54.756;9.192;2023-03-23T11:45:36;12.50;99.90
11540;DHT22;5826;54.756;9.192;2023-03-23T11:51:06;12.30;99.90
11540;DHT22;5826;54.756;9.192;2023-03-23T11:53:43;12.40;99.90
11540;DHT22;5826;54.756;9.192;2023-03-23T11:56:23;12.50;99.90
11540;DHT22;5826;54.756;9.192;2023-03-23T11:58:51;12.60;99.90
11540;DHT22;5826;54.756;9.192;2023-03-23T12:04:33;12.80;99.90
11540;DHT22;5826;54.756;9.192;2023-03-23T12:07:26;12.90;99.90
11540;DHT22;5826;54.756;9.192;2023-03-23T12:10:15;12.90;99.90
11540;DHT22;5826;54.756;9.192;2023-03-23T12:15:41;13.10;99.90
11540;DHT22;5826;54.756;9.192;2023-03-23T12:23:44;13.60;99.90
11540;DHT22;5826;54.756;9.192;2023-03-23T12:29:13;13.90;99.90
11540;DHT22;5826;54.756;9.192;2023-03-23T12:34:55;13.70;99.90
11540;DHT22;5826;54.756;9.192;2023-03-23T12:40:10;13.50;99.90
11540;DHT22;5826;54.756;9.192;2023-03-23T12:48:28;13.60;99.90
11540;DHT22;5826;54.756;9.192;2023-03-23T12:53:43;13.80;99.90
11540;DHT22;5826;54.756;9.192;2023-03-23T12:56:17;13.70;99.90
11540;DHT22;5826;54.756;9.192;2023-03-23T12:58:50;13.80;99.90
11540;DHT22;5826;54.756;9.192;2023-03-23T13:04:12;14.30;99.90
11540;DHT22;5826;54.756;9.192;2023-03-23T13:06:44;14.60;99.90
11540;DHT22;5826;54.756;9.192;2023-03-23T13:09:38;15.00;99.90
11540;DHT22;5826;54.756;9.192;2023-03-23T13:12:05;15.10;99.90
11540;DHT22;5826;54.756;9.192;2023-03-23T13:26:08;14.80;99.90
11540;DHT22;5826;54.756;9.192;2023-03-23T13:31:22;15.30;99.90
11540;DHT22;5826;54.756;9.192;2023-03-23T13:33:53;15.80;99.90
11540;DHT22;5826;54.756;9.192;2023-03-23T13:36:35;16.20;99.90
11540;DHT22;5826;54.756;9.192;2023-03-23T13:39:04;16.40;99.90
11540;DHT22;5826;54.756;9.192;2023-03-23T13:41:33;16.50;99.90
11540;DHT22;5826;54.756;9.192;2023-03-23T13:44:23;16.80;99.90
11540;DHT22;5826;54.756;9.192;2023-03-23T13:47:04;16.80;99.90
11540;DHT22;5826;54.756;9.192;2023-03-23T13:49:31;16.60;99.90
11540;DHT22;5826;54.756;9.192;2023-03-23T13:52:15;16.90;99.90
11540;DHT22;5826;54.756;9.192;2023-03-23T13:54:44;17.20;99.90
11540;DHT22;5826;54.756;9.192;2023-03-23T13:57:36;18.00;99.90
11540;DHT22;5826;54.756;9.192;2023-03-23T14:01:15;19.00;99.90
11540;DHT22;5826;54.756;9.192;2023-03-23T14:05:51;21.10;99.90
11540;DHT22;5826;54.756;9.192;2023-03-23T14:11:09;23.90;99.90
11540;DHT22;5826;54.756;9.192;2023-03-23T14:16:38;27.10;95.30
11540;DHT22;5826;54.756;9.192;2023-03-23T14:19:37;28.00;96.70
11540;DHT22;5826;54.756;9.192;2023-03-23T14:22:01;29.20;94.50
11540;DHT22;5826;54.756;9.192;2023-03-23T14:24:32;30.50;94.80
11540;DHT22;5826;54.756;9.192;2023-03-23T14:27:16;31.10;93.30
11540;DHT22;5826;54.756;9.192;2023-03-23T14:29:42;31.80;90.70
11540;DHT22;5826;54.756;9.192;2023-03-23T14:32:20;32.40;93.30
11540;DHT22;5826;54.756;9.192;2023-03-23T14:34:51;32.50;90.20
11540;DHT22;5826;54.756;9.192;2023-03-23T14:37:17;32.30;93.70
11540;DHT22;5826;54.756;9.192;2023-03-23T14:39:48;32.90;94.70
11540;DHT22;5826;54.756;9.192;2023-03-23T14:42:16;33.60;87.00
11540;DHT22;5826;54.756;9.192;2023-03-23T14:44:48;34.00;95.30
11540;DHT22;5826;54.756;9.192;2023-03-23T14:49:43;34.90;91.70
11540;DHT22;5826;54.756;9.192;2023-03-23T14:52:12;34.90;90.50
11540;DHT22;5826;54.756;9.192;2023-03-23T14:54:38;34.50;95.90
11540;DHT22;5826;54.756;9.192;2023-03-23T14:57:30;33.70;93.00
11540;DHT22;5826;54.756;9.192;2023-03-23T14:59:55;33.10;79.80
11540;DHT22;5826;54.756;9.192;2023-03-23T15:02:25;32.20;96.00
11540;DHT22;5826;54.756;9.192;2023-03-23T15:05:02;32.10;95.30
11540;DHT22;5826;54.756;9.192;2023-03-23T15:07:35;31.90;94.30
11540;DHT22;5826;54.756;9.192;2023-03-23T15:10:06;32.10;94.80
11540;DHT22;5826;54.756;9.192;2023-03-23T15:12:32;32.70;94.30
11540;DHT22;5826;54.756;9.192;2023-03-23T15:15:02;33.10;95.10
11540;DHT22;5826;54.756;9.192;2023-03-23T15:17:34;33.90;95.90
11540;DHT22;5826;54.756;9.192;2023-03-23T15:20:18;34.30;93.00
11540;DHT22;5826;54.756;9.192;2023-03-23T15:22:46;34.20;92.80
11540;DHT22;5826;54.756;9.192;2023-03-23T15:25:19;33.90;94.30
11540;DHT22;5826;54.756;9.192;2023-03-23T15:27:54;33.50;90.60
11540;DHT22;5826;54.756;9.192;2023-03-23T15:33:09;33.10;92.50
11540;DHT22;5826;54.756;9.192;2023-03-23T15:35:38;32.70;91.10
11540;DHT22;5826;54.756;9.192;2023-03-23T15:38:12;32.20;90.90
11540;DHT22;5826;54.756;9.192;2023-03-23T15:40:39;32.00;94.70
11540;DHT22;5826;54.756;9.192;2023-03-23T15:43:23;31.90;91.80
11540;DHT22;5826;54.756;9.192;2023-03-23T15:51:16;31.70;92.80
11540;DHT22;5826;54.756;9.192;2023-03-23T15:53:43;31.60;94.60
11540;DHT22;5826;54.756;9.192;2023-03-23T15:56:10;31.70;94.30
11540;DHT22;5826;54.756;9.192;2023-03-23T15:58:37;32.00;93.90
11540;DHT22;5826;54.756;9.192;2023-03-23T16:01:07;32.10;94.10
11540;DHT22;5826;54.756;9.192;2023-03-23T16:03:40;31.90;92.80
11540;DHT22;5826;54.756;9.192;2023-03-23T16:06:11;31.50;90.60
11540;DHT22;5826;54.756;9.192;2023-03-23T16:08:36;31.10;93.50
11540;DHT22;5826;54.756;9.192;2023-03-23T16:11:11;30.90;94.10
11540;DHT22;5826;54.756;9.192;2023-03-23T16:13:38;30.80;94.80
11540;DHT22;5826;54.756;9.192;2023-03-23T16:16:05;29.90;94.70
11540;DHT22;5826;54.756;9.192;2023-03-23T16:18:32;29.10;94.60
11540;DHT22;5826;54.756;9.192;2023-03-23T16:20:58;27.60;93.60
11540;DHT22;5826;54.756;9.192;2023-03-23T16:23:23;26.50;96.00
11540;DHT22;5826;54.756;9.192;2023-03-23T16:25:49;26.00;96.40
11540;DHT22;5826;54.756;9.192;2023-03-23T16:28:15;25.60;96.50
11540;DHT22;5826;54.756;9.192;2023-03-23T16:30:43;25.30;95.70
11540;DHT22;5826;54.756;9.192;2023-03-23T16:33:09;24.80;96.20
11540;DHT22;5826;54.756;9.192;2023-03-23T16:35:35;24.20;96.60
11540;DHT22;5826;54.756;9.192;2023-03-23T16:38:01;23.60;96.60
11540;DHT22;5826;54.756;9.192;2023-03-23T16:40:27;22.60;97.60
11540;DHT22;5826;54.756;9.192;2023-03-23T16:42:53;21.30;96.80
11540;DHT22;5826;54.756;9.192;2023-03-23T16:45:18;20.40;98.10
11540;DHT22;5826;54.756;9.192;2023-03-23T16:47:44;19.70;99.40
11540;DHT22;5826;54.756;9.192;2023-03-23T16:50:12;19.10;99.90
11540;DHT22;5826;54.756;9.192;2023-03-23T16:52:40;18.30;99.10
11540;DHT22;5826;54.756;9.192;2023-03-23T16:55:07;17.60;99.60
11540;DHT22;5826;54.756;9.192;2023-03-23T16:57:33;17.20;99.90
11540;DHT22;5826;54.756;9.192;2023-03-23T17:00:02;16.70;99.90
11540;DHT22;5826;54.756;9.192;2023-03-23T17:02:28;16.30;99.90
11540;DHT22;5826;54.756;9.192;2023-03-23T17:04:54;15.90;99.90
11540;DHT22;5826;54.756;9.192;2023-03-23T17:07:19;15.50;99.90
11540;DHT22;5826;54.756;9.192;2023-03-23T17:09:45;15.10;99.90
11540;DHT22;5826;54.756;9.192;2023-03-23T17:12:10;14.80;99.90
11540;DHT22;5826;54.756;9.192;2023-03-23T17:14:36;14.40;99.90
11540;DHT22;5826;54.756;9.192;2023-03-23T17:17:01;14.10;99.90
11540;DHT22;5826;54.756;9.192;2023-03-23T17:19:27;13.80;99.90
11540;DHT22;5826;54.756;9.192;2023-03-23T17:21:53;13.60;99.90
11540;DHT22;5826;54.756;9.192;2023-03-23T17:24:18;13.40;99.90
11540;DHT22;5826;54.756;9.192;2023-03-23T17:26:44;13.20;99.90
11540;DHT22;5826;54.756;9.192;2023-03-23T17:29:09;13.20;99.90
11540;DHT22;5826;54.756;9.192;2023-03-23T17:31:35;13.00;99.90
11540;DHT22;5826;54.756;9.192;2023-03-23T17:34:00;12.90;99.90
11540;DHT22;5826;54.756;9.192;2023-03-23T17:36:26;12.80;99.90
11540;DHT22;5826;54.756;9.192;2023-03-23T17:38:52;12.70;99.90
11540;DHT22;5826;54.756;9.192;2023-03-23T17:41:17;12.70;99.90